Airfield :
LOGIN :

Register | Disclaimer

   EN    FR    IT 

 










Legend :    VFR   Marginal VFR   IFR   Intensive IFR   Very Intensive IFR
Visi :
Ceiling :
>= 8 km
>= 3000ft
5 to 8 km
1000 to 3000 ft
1500m to 5 km
500 to 1000 ft
800 to 1500m
200 to 500 ft
< 800m
< 200 ft
Symbols :   Thunderstorms  Fog  Heavy snow  Heavy precipitations  Wind > 20 kt
SIGMETs :     Misc.  Thunderstorms  Icing  Turbulence  Mountain Waves  Volcanic Ashes







- Airport Elevation : 291 ft
- IATA code : ORY
- Download approach charts


LFPO - Paris-Orly

CURRENT METAR :
  • 102330Z 27002KT 9999 FEW028 SCT049 05/04 Q1027 NOSIG

EXPIRED METARs :
  • 102300Z 24003KT 9999 FEW028 SCT046 05/04 Q1028 NOSIG
  • 102230Z 23004KT 9999 FEW028 SCT046 04/03 Q1028 NOSIG
  • 102200Z VRB02KT 9999 SCT040 05/03 Q1028 NOSIG
  • 102130Z VRB01KT 9999 SCT040 05/04 Q1028 NOSIG
  • 102100Z 25003KT 9999 SCT040 06/05 Q1027 NOSIG

TAF TAF LFPO
Valid from the 11 at 00:00 until the 12 at 06:00 UTC


102300Z 1100/1206 VRB05KT 9999 SCT040
PROB40
TEMPO 1102/1108 3000 BR SCT003
PROB30
TEMPO 1104/1106 0800 BCFG VV///
BECMG 1110/1112 14005KT BKN006
BECMG 1114/1116 BKN013
BECMG 1120/1122 CAVOK
TEMPO 1202/1206 3000 BR BKN006
ATIS : +33 1 49 75 65 80
No reported NOTAMs for that airfield.



MET'MAP, your aeronautical weather chart ! - Copyright ORBIFLY December 2007 - Disclaimer

ORBIFLY MET'MAP TEAM :

Programming & Development : Alexandra Zaïnal
Concept & Development : Baudouin d'Aumeries
Co-Development & Prog : Marc-Olivier Méhu
Technical & hardware support : Manuel Goepfert

Contact : metmap@orbifly.com




SOURCES & CREDITS :

   NOAA